This is the latest recevied weather packets stored in our database for station/object DB3LD. If no packets are shown the sender has not sent any weather packets the latest 10 day(s).
| Time | Temp. | Humidity | Pressure | Rain* | Wind** | Luminosity | Snow |
|---|---|---|---|---|---|---|---|
| 1777651808 | 22.78° C | 34% | 1024.5 hPa | 0 mm | - | 37 W/m² | - |
| 1777650608 | 22.78° C | 35% | 1025 hPa | 0 mm | - | 152 W/m² | - |
| 1777630808 | 20.56° C | 41% | 1028.5 hPa | 0 mm | - | 728 W/m² | - |
| 1777627207 | 20.56° C | 43% | 1029 hPa | 0 mm | - | 663 W/m² | - |
| 1777624207 | 18.89° C | 41% | 1029.6 hPa | 0 mm | - | 582 W/m² | - |
| 1777615209 | 3.89° C | 88% | 1029.4 hPa | 0 mm | - | 35 W/m² | - |
| 1777610408 | 3.89° C | 88% | 1029.4 hPa | 0 mm | - | 35 W/m² | - |
| 1777609808 | 3.33° C | 88% | 1029.5 hPa | 0 mm | - | 32 W/m² | - |
| 1777609208 | 3.33° C | 87% | 1029.4 hPa | 0 mm | - | 18 W/m² | - |
| 1777606207 | 3.89° C | 87% | 1029.2 hPa | 0 mm | - | 0 W/m² | - |
| 1777605006 | 3.89° C | 87% | 1029.3 hPa | 0 mm | - | 0 W/m² | - |
| 1777604407 | 3.89° C | 86% | 1029.3 hPa | 0 mm | - | 0 W/m² | - |
| 1777597805 | 5.56° C | 84% | 1029.5 hPa | 0 mm | - | 0 W/m² | - |
| 1777594809 | 6.11° C | 82% | 1029.5 hPa | 0 mm | - | 0 W/m² | - |
| 1777588208 | 7.78° C | 77% | 1029.6 hPa | 0 mm | - | 0 W/m² | - |
| 1777581007 | 11.67° C | 64% | 1029.8 hPa | 0 mm | - | 0 W/m² | - |
| 1777580406 | 12.78° C | 62% | 1029.8 hPa | 0 mm | - | 0 W/m² | - |
| 1777579806 | 13.33° C | 60% | 1029.8 hPa | 0 mm | - | 0 W/m² | - |
| 1777570809 | 18.33° C | 46% | 1029.3 hPa | 0 mm | - | 31 W/m² | - |
| 1777558206 | 19.44° C | 39% | 1030.4 hPa | 0 mm | - | 568 W/m² | - |
| 1777555205 | 19.44° C | 39% | 1030.8 hPa | 0 mm | - | 661 W/m² | - |
| 1777550409 | 18.89° C | 38% | 1031.7 hPa | 0 mm | - | 733 W/m² | - |
| 1777524609 | 2.78° C | 87% | 1032.5 hPa | 0 mm | - | 56 W/m² | - |
| 1777522808 | 1.67° C | 86% | 1032.4 hPa | 0 mm | - | 17 W/m² | - |
| 1777521008 | 1.67° C | 85% | 1032.3 hPa | 0 mm | - | 3 W/m² | - |
* Rain latest hour (hover to see other rain measurements)
** Current wind speed in m/s (hover to see current wind gust speed)